Weather at Berlin Lndg Area [CLOSED]

Public forecast

Using degrees Fahrenheit for public forecast. Weather courtesy of forecast.io.

Closest aviation weather report (METAR) to Berlin Lndg Area

Closest report is Worcester Regional Airport, 12.0 nm (22.2 km) WSW. Retrieved 2020/10/01 18:54 UTC (60 minutes ago):

KORH 011854Z 25008G17KT 10SM OVC110 21/09 A2988 RMK AO2 SLP117 T02060089

Closest aviation forecast (TAF) to Berlin Lndg Area

Closest forecast is Worcester Regional Airport, 12.0 nm (22.2 km) WSW. Retrieved 2020/10/01 18:27 UTC (1 hour ago):

TAF KORH 011723Z 0118/0218 22012G20KT P6SM FEW045 SCT090 BKN110 FM012200 24006KT P6SM FEW100 FM020300 27004KT P6SM FEW150 FM020600 30004KT P6SM BKN080 FM021400 32005KT P6SM OVC050